Philadelphia International Airport
KPHL : now visible

Airfield :











YOU CAN JOIN US ON...

 
LOGIN :

Register | Disclaimer

   EN    FR    IT 

 









Legend :    VFR   Marginal VFR   IFR   Intensive IFR   Very Intensive IFR
Visi :
Ceiling :
>= 8 km
>= 3000ft
5 to 8 km
1000 to 3000 ft
1500m to 5 km
500 to 1000 ft
800 to 1500m
200 to 500 ft
< 800m
< 200 ft
Symbols :   Thunderstorms  Fog  Heavy snow  Heavy precipitations  Wind > 20 kt






- Airport Elevation : 36 ft
- IATA code : PHL


KPHL - Philadelphia International

CURRENT METAR :
  • 112054Z 19012KT 10SM SCT040 SCT070 SCT250 32/22 A2992 RMK AO2 SLP130 T03170217 56009

EXPIRED METARs :
  • 111954Z 20010KT 10SM SCT043 SCT250 32/22 A2992 RMK AO2 SLP132 T03220222
  • 111854Z 18008KT 10SM FEW040 SCT055 SCT100 BKN280 32/22 A2994 RMK AO2 SLP137 T03170217

TAF KPHL
Valid from the 11 at 21:00 until the 13 at 00:00 UTC


112106Z 1121/1224 20011KT P6SM SCT040
FM120000 18005KT P6SM FEW040 SCT200
FM120800 VRB03KT P6SM BKN040
TEMPO 1210/1212 6SM BR
FM121300 19005KT P6SM BKN050
FM121800 21006KT P6SM VCTS BKN045CB
KZDC FIR / North America



MET'MAP, your aeronautical weather chart ! - Copyright ORBIFLY December 2007 - Disclaimer

ORBIFLY MET'MAP TEAM :

Programming & Development : Alexandra Zaïnal
Concept & original design : Baudouin d'Aumeries
Assistance for programming : Marc-Olivier Méhu
Technical & hardware support : Manuel Goepfert

Contact : metmap@orbifly.com




SOURCES & CREDITS :

   NOAA       Earth
Advisory